createdAt,value
2023-02-02T00:02:22.420Z,40.17
2023-02-02T00:04:50.969Z,38.38
2023-02-02T00:07:22.137Z,33.53
2023-02-02T00:09:50.767Z,35.78
2023-02-02T00:12:20.530Z,41.47
2023-02-02T00:14:52.910Z,41.25
2023-02-02T00:17:21.366Z,36.90
2023-02-02T00:19:49.867Z,33.63
2023-02-02T00:25:22.043Z,36.72
2023-02-02T00:28:02.985Z,41.38
2023-02-02T00:30:33.094Z,34.78
2023-02-02T00:33:05.677Z,44.22
2023-02-02T00:35:34.229Z,38.58
2023-02-02T00:38:03.689Z,39.50
2023-02-02T00:40:32.187Z,37.60
2023-02-02T00:43:02.429Z,37.78
2023-02-02T00:45:33.276Z,43.30
2023-02-02T00:48:01.909Z,40.38
2023-02-02T00:50:30.722Z,40.58
2023-02-02T00:52:59.364Z,38.53
2023-02-02T01:00:27.364Z,36.35
2023-02-02T01:03:04.345Z,38.97
2023-02-02T01:05:33.158Z,38.42
2023-02-02T01:08:01.804Z,44.67
2023-02-02T01:10:30.518Z,38.88
2023-02-02T01:12:59.030Z,39.85
2023-02-02T01:15:27.489Z,41.90
2023-02-02T01:17:58.683Z,40.80
2023-02-02T01:20:27.209Z,38.50
2023-02-02T01:22:55.821Z,41.28
2023-02-02T01:25:24.713Z,41.67
2023-02-02T01:27:55.499Z,41.38
2023-02-02T01:30:27.388Z,47.30
2023-02-02T01:32:59.153Z,46.13
2023-02-02T01:35:27.810Z,43.40
2023-02-02T01:37:56.776Z,44.53
2023-02-02T01:43:53.054Z,45.75
2023-02-02T01:46:27.671Z,44.50
2023-02-02T01:49:07.578Z,40.83
2023-02-02T01:51:42.300Z,43.00
2023-02-02T01:54:15.405Z,41.13
2023-02-02T01:56:49.555Z,43.75
2023-02-02T01:59:19.539Z,41.95
2023-02-02T02:01:50.192Z,45.70
2023-02-02T02:04:21.166Z,45.35
2023-02-02T02:06:52.012Z,48.97
2023-02-02T02:09:21.353Z,45.78
2023-02-02T02:11:50.116Z,44.70
2023-02-02T02:14:36.149Z,43.50
2023-02-02T02:17:16.150Z,51.33
2023-02-02T02:20:50.667Z,42.60
2023-02-02T02:24:14.171Z,39.30
2023-02-02T02:27:06.813Z,42.50
2023-02-02T02:30:07.821Z,45.13
2023-02-02T02:32:46.112Z,44.65
2023-02-02T02:35:24.878Z,44.28
2023-02-02T02:38:00.861Z,43.15
2023-02-02T02:40:36.441Z,41.97
2023-02-02T02:43:10.997Z,42.45
2023-02-02T02:45:40.583Z,47.13
2023-02-02T02:48:19.203Z,44.63
2023-02-02T02:51:47.854Z,42.42
2023-02-02T02:54:30.274Z,40.78
2023-02-02T02:57:20.041Z,43.38
2023-02-02T02:59:58.470Z,44.00
2023-02-02T03:05:12.662Z,41.55
2023-02-02T03:07:46.000Z,41.25
2023-02-02T03:10:18.593Z,39.75
2023-02-02T03:12:48.792Z,43.78
2023-02-02T03:15:17.937Z,42.20
2023-02-02T03:17:49.233Z,37.50
2023-02-02T03:20:22.947Z,44.15
2023-02-02T03:22:51.476Z,37.92
2023-02-02T03:25:19.901Z,43.03
2023-02-02T03:28:00.484Z,41.40
2023-02-02T03:30:33.190Z,38.08
2023-02-02T03:33:02.216Z,39.33
2023-02-02T03:35:32.294Z,34.50
2023-02-02T03:38:04.005Z,33.65
2023-02-02T03:40:32.677Z,38.88
2023-02-02T03:43:01.191Z,34.75
2023-02-02T03:50:30.203Z,35.63
2023-02-02T03:53:07.604Z,37.65
2023-02-02T03:55:40.664Z,36.20
2023-02-02T03:58:09.411Z,31.10
2023-02-02T04:03:06.130Z,34.08
2023-02-02T04:08:06.414Z,33.60
2023-02-02T04:10:34.964Z,35.03
2023-02-02T04:15:32.623Z,32.90
2023-02-02T04:18:01.965Z,33.38
2023-02-02T04:20:36.817Z,33.47
2023-02-02T04:23:06.822Z,38.20
2023-02-02T04:25:36.553Z,33.55
2023-02-02T04:28:07.812Z,31.63
2023-02-02T04:30:37.818Z,31.60
2023-02-02T04:33:17.424Z,33.22
2023-02-02T04:35:46.282Z,33.33
2023-02-02T04:40:46.788Z,32.20
2023-02-02T04:43:15.595Z,38.20
2023-02-02T04:48:12.448Z,34.65
2023-02-02T04:53:09.169Z,30.73
2023-02-02T04:58:08.189Z,31.85
2023-02-02T05:03:05.062Z,33.83
2023-02-02T05:08:01.630Z,36.83
2023-02-02T05:10:30.225Z,31.23
2023-02-02T05:15:28.271Z,32.70
2023-02-02T05:17:56.644Z,32.03
2023-02-02T05:20:33.889Z,26.30
2023-02-02T05:23:02.428Z,29.10
2023-02-02T05:25:30.893Z,32.15
2023-02-02T05:28:01.008Z,29.38
2023-02-02T05:30:29.994Z,30.17
2023-02-02T05:32:58.883Z,30.60
2023-02-02T05:35:27.688Z,27.48
2023-02-02T05:37:59.397Z,27.45
2023-02-02T05:40:27.988Z,28.70
2023-02-02T05:42:56.636Z,28.30
2023-02-02T05:45:26.762Z,26.88
2023-02-02T05:48:32.222Z,28.60
2023-02-02T05:52:08.036Z,28.63
2023-02-02T05:54:36.547Z,26.88
2023-02-02T05:57:32.127Z,28.45
2023-02-02T06:00:10.193Z,31.70
2023-02-02T06:02:54.590Z,25.85
2023-02-02T06:05:26.374Z,28.80
2023-02-02T06:07:57.453Z,24.33
2023-02-02T06:10:26.036Z,27.33
2023-02-02T06:12:54.533Z,23.25
2023-02-02T06:15:23.331Z,26.83
2023-02-02T06:17:53.458Z,32.05
2023-02-02T06:20:22.562Z,35.47
2023-02-02T06:22:51.909Z,34.25
2023-02-02T06:25:20.354Z,26.60
2023-02-02T06:27:49.637Z,28.30
2023-02-02T06:30:18.428Z,27.10
2023-02-02T06:32:46.912Z,25.58
2023-02-02T06:35:17.031Z,26.52
2023-02-02T06:37:45.629Z,30.20
2023-02-02T06:42:51.490Z,27.67
2023-02-02T06:45:23.630Z,35.80
2023-02-02T06:47:53.823Z,30.27
2023-02-02T06:50:48.290Z,31.42
2023-02-02T06:53:26.569Z,32.40
2023-02-02T06:56:03.318Z,29.98
2023-02-02T06:58:35.827Z,30.63
2023-02-02T07:01:09.107Z,29.50
2023-02-02T07:03:40.720Z,30.23
2023-02-02T07:06:17.052Z,28.13
2023-02-02T07:08:53.119Z,28.00
2023-02-02T07:11:41.677Z,29.30
2023-02-02T07:14:16.451Z,31.13
2023-02-02T07:16:45.179Z,30.00
2023-02-02T07:21:43.376Z,29.80
2023-02-02T07:24:12.079Z,32.47
2023-02-02T07:26:40.787Z,32.10
2023-02-02T07:29:15.672Z,29.67
2023-02-02T07:31:44.348Z,30.40
2023-02-02T07:36:42.550Z,29.58
2023-02-02T07:39:11.125Z,27.85
2023-02-02T07:41:39.667Z,28.13
2023-02-02T07:44:17.986Z,28.48
2023-02-02T07:46:48.169Z,32.53
2023-02-02T07:49:20.149Z,31.15
2023-02-02T07:51:50.153Z,34.83
2023-02-02T07:54:18.637Z,32.90
2023-02-02T07:56:47.148Z,33.22
2023-02-02T07:59:15.598Z,31.42
2023-02-02T08:01:44.181Z,35.25
2023-02-02T08:06:41.543Z,32.63
2023-02-02T08:09:11.698Z,31.98
2023-02-02T08:11:40.814Z,31.83
2023-02-02T08:14:09.524Z,32.67
2023-02-02T08:19:06.366Z,35.65
2023-02-02T08:21:35.065Z,36.33
2023-02-02T08:26:34.570Z,38.05
2023-02-02T08:29:06.540Z,30.45
2023-02-02T08:31:37.335Z,36.58
2023-02-02T08:34:07.404Z,35.10
2023-02-02T08:36:36.523Z,28.98
2023-02-02T08:39:06.475Z,36.53
2023-02-02T08:41:37.079Z,38.63
2023-02-02T08:44:09.916Z,39.33
2023-02-02T08:46:40.077Z,35.80
2023-02-02T08:49:11.849Z,38.90
2023-02-02T08:51:40.849Z,37.50
2023-02-02T08:56:40.054Z,36.47
2023-02-02T08:59:08.654Z,39.25
2023-02-02T09:01:37.593Z,34.05
2023-02-02T09:04:07.752Z,34.17
2023-02-02T09:06:40.868Z,37.58
2023-02-02T09:09:11.913Z,35.97
2023-02-02T09:11:43.815Z,38.67
2023-02-02T09:14:14.254Z,32.83
2023-02-02T09:16:43.309Z,37.85
2023-02-02T09:19:17.711Z,42.78
2023-02-02T09:24:29.488Z,33.85
2023-02-02T09:26:59.392Z,32.55
2023-02-02T09:29:27.851Z,32.03
2023-02-02T09:31:56.340Z,31.13
2023-02-02T09:34:24.889Z,34.35
2023-02-02T09:36:54.495Z,31.80
2023-02-02T09:39:22.950Z,30.30
2023-02-02T09:42:29.237Z,34.78
2023-02-02T09:45:04.777Z,30.10
2023-02-02T09:47:55.576Z,29.70
2023-02-02T09:50:41.597Z,26.90
2023-02-02T09:53:24.377Z,34.38
2023-02-02T09:55:55.421Z,30.60
2023-02-02T09:58:29.261Z,29.70
2023-02-02T10:01:04.111Z,29.77
2023-02-02T10:03:39.045Z,26.15
2023-02-02T10:06:19.002Z,26.50
2023-02-02T10:08:53.999Z,29.35
2023-02-02T10:11:32.580Z,27.23
2023-02-02T10:14:09.011Z,31.92
2023-02-02T10:16:41.154Z,29.98
2023-02-02T10:19:13.889Z,31.48
2023-02-02T10:21:49.515Z,29.70
2023-02-02T10:24:24.702Z,31.67
2023-02-02T10:26:55.951Z,31.23
2023-02-02T10:29:48.622Z,28.25
2023-02-02T10:32:27.444Z,32.40
2023-02-02T10:35:14.357Z,28.13
2023-02-02T10:37:51.468Z,28.80
2023-02-02T10:40:34.379Z,26.55
2023-02-02T10:43:38.136Z,30.38
2023-02-02T10:46:15.754Z,30.55
2023-02-02T10:48:47.643Z,28.17
2023-02-02T10:51:21.710Z,29.27
2023-02-02T10:53:54.715Z,26.30
2023-02-02T10:56:32.365Z,27.63
2023-02-02T10:59:06.068Z,27.77
2023-02-02T11:01:36.271Z,23.60
2023-02-02T11:04:26.455Z,27.63
2023-02-02T11:06:55.278Z,27.45
2023-02-02T11:09:31.983Z,28.48
2023-02-02T11:12:06.875Z,26.60
2023-02-02T11:14:45.428Z,29.27
2023-02-02T11:17:27.088Z,26.02
2023-02-02T11:20:25.067Z,26.80
2023-02-02T11:23:03.306Z,31.02
2023-02-02T11:25:35.282Z,25.38
2023-02-02T11:28:21.666Z,28.75
2023-02-02T11:30:52.712Z,27.13
2023-02-02T11:33:29.295Z,23.42
2023-02-02T11:36:01.962Z,24.67
2023-02-02T11:38:31.090Z,23.08
2023-02-02T11:41:03.983Z,26.85
2023-02-02T11:43:42.947Z,27.40
2023-02-02T11:46:24.916Z,25.23
2023-02-02T11:49:02.611Z,27.85
2023-02-02T11:51:34.532Z,29.45
2023-02-02T11:54:06.577Z,29.42
2023-02-02T11:56:38.419Z,30.73
2023-02-02T11:59:07.531Z,33.08
2023-02-02T12:01:39.920Z,29.15
2023-02-02T12:04:26.779Z,29.05
2023-02-02T12:07:25.733Z,25.00
2023-02-02T12:10:06.585Z,28.85
2023-02-02T12:12:46.475Z,28.05
2023-02-02T12:15:27.307Z,28.92
2023-02-02T12:18:07.143Z,27.92
2023-02-02T12:20:47.535Z,31.55
2023-02-02T12:23:39.294Z,26.83
2023-02-02T12:26:19.254Z,31.75
2023-02-02T12:29:14.152Z,28.55
2023-02-02T12:31:51.247Z,25.25
2023-02-02T12:34:31.393Z,27.80
2023-02-02T12:37:08.288Z,29.30
2023-02-02T12:39:51.584Z,27.92
2023-02-02T12:42:38.249Z,30.50
2023-02-02T12:45:24.924Z,29.55
2023-02-02T12:48:07.559Z,25.20
2023-02-02T12:50:46.907Z,28.60
2023-02-02T12:53:30.565Z,26.20
2023-02-02T12:56:07.899Z,27.63
2023-02-02T12:58:44.527Z,28.63
2023-02-02T13:01:26.640Z,31.13
2023-02-02T13:04:29.106Z,30.67
2023-02-02T13:07:30.239Z,32.55
2023-02-02T13:10:13.102Z,33.70
2023-02-02T13:12:46.006Z,29.50
2023-02-02T13:15:23.625Z,32.00
2023-02-02T13:17:56.295Z,36.67
2023-02-02T13:20:33.383Z,30.17
2023-02-02T13:23:10.343Z,32.28
2023-02-02T13:25:48.551Z,31.85
2023-02-02T13:28:32.049Z,32.33
2023-02-02T13:31:08.041Z,27.27
2023-02-02T13:33:39.096Z,33.58
2023-02-02T13:36:15.905Z,28.08
2023-02-02T13:38:46.108Z,31.08
2023-02-02T13:41:17.330Z,32.15
2023-02-02T13:43:54.222Z,32.60
2023-02-02T13:46:31.872Z,35.22
2023-02-02T13:49:08.831Z,33.77
2023-02-02T13:51:51.175Z,36.22
2023-02-02T13:55:01.325Z,36.10
2023-02-02T13:57:53.412Z,33.65
2023-02-02T14:00:25.251Z,35.95
2023-02-02T14:02:56.261Z,37.97
2023-02-02T14:05:28.628Z,33.63
2023-02-02T14:08:03.106Z,31.95
2023-02-02T14:10:35.547Z,34.15
2023-02-02T14:13:35.263Z,34.90
2023-02-02T14:16:06.621Z,37.63
2023-02-02T14:18:55.524Z,35.28
2023-02-02T14:22:00.817Z,34.80
2023-02-02T14:24:50.170Z,37.05
2023-02-02T14:27:56.121Z,34.88
2023-02-02T14:30:34.779Z,39.10
2023-02-02T14:33:38.482Z,38.92
2023-02-02T14:36:18.173Z,38.88
2023-02-02T14:39:09.722Z,40.63
2023-02-02T14:42:21.364Z,37.63
2023-02-02T14:45:16.942Z,33.38
2023-02-02T14:47:52.591Z,38.00
2023-02-02T14:50:28.309Z,35.92
2023-02-02T14:53:08.560Z,38.38
2023-02-02T14:55:50.790Z,41.22
2023-02-02T14:58:26.111Z,38.05
2023-02-02T15:01:06.812Z,44.08
2023-02-02T15:03:49.839Z,33.20
2023-02-02T15:06:34.040Z,34.30
2023-02-02T15:09:29.454Z,38.60
2023-02-02T15:12:25.284Z,35.05
2023-02-02T15:15:18.552Z,32.80
2023-02-02T15:18:04.024Z,39.65
2023-02-02T15:20:48.912Z,32.22
2023-02-02T15:23:31.237Z,35.80
2023-02-02T15:26:06.048Z,37.97
2023-02-02T15:28:43.443Z,32.42
2023-02-02T15:31:20.553Z,33.40
2023-02-02T15:33:52.038Z,35.03
2023-02-02T15:36:26.985Z,37.47
2023-02-02T15:38:59.176Z,35.20
2023-02-02T15:41:33.511Z,40.78
2023-02-02T15:44:03.006Z,34.72
2023-02-02T15:46:36.019Z,41.38
2023-02-02T15:49:35.308Z,35.30
2023-02-02T15:52:15.518Z,34.50
2023-02-02T15:54:54.011Z,34.80
2023-02-02T15:59:57.774Z,34.25
2023-02-02T16:02:37.235Z,31.92
2023-02-02T16:05:37.557Z,37.45
2023-02-02T16:08:38.289Z,38.03
2023-02-02T16:11:14.580Z,31.40
2023-02-02T16:14:00.554Z,32.50
2023-02-02T16:16:39.201Z,35.45
2023-02-02T16:19:22.309Z,35.67
2023-02-02T16:22:04.581Z,31.73
2023-02-02T16:24:53.002Z,32.72
2023-02-02T16:27:25.219Z,31.73
2023-02-02T16:30:12.359Z,31.88
2023-02-02T16:32:42.264Z,32.92
2023-02-02T16:35:47.410Z,33.28
2023-02-02T16:38:27.026Z,36.60
2023-02-02T16:41:20.832Z,36.83
2023-02-02T16:43:52.173Z,31.92
2023-02-02T16:46:47.070Z,40.17
2023-02-02T16:49:33.543Z,34.92
2023-02-02T16:52:28.362Z,32.13
2023-02-02T16:55:05.296Z,35.40
2023-02-02T16:57:43.070Z,38.72
2023-02-02T17:00:37.398Z,28.83
2023-02-02T17:03:11.478Z,32.47
2023-02-02T17:06:01.902Z,32.40
2023-02-02T17:08:38.632Z,33.78
2023-02-02T17:11:29.333Z,34.13
2023-02-02T17:14:22.034Z,27.50
2023-02-02T17:16:50.891Z,35.85
2023-02-02T17:19:29.830Z,34.67
2023-02-02T17:22:05.408Z,32.17
2023-02-02T17:24:36.412Z,29.48
2023-02-02T17:27:11.705Z,28.92
2023-02-02T17:32:57.538Z,35.88
2023-02-02T17:35:39.933Z,29.05
2023-02-02T17:38:24.213Z,31.20
2023-02-02T17:41:08.299Z,32.38
2023-02-02T17:43:44.221Z,30.63
2023-02-02T17:46:14.848Z,32.00
2023-02-02T17:48:44.212Z,36.40
2023-02-02T17:51:24.464Z,32.47
2023-02-02T17:54:05.829Z,29.10
2023-02-02T17:57:22.498Z,36.13
2023-02-02T17:59:53.185Z,30.77
2023-02-02T18:02:26.466Z,29.63
2023-02-02T18:04:57.199Z,34.10
2023-02-02T18:07:32.576Z,29.30
2023-02-02T18:10:16.399Z,26.13
2023-02-02T18:13:07.379Z,33.28
2023-02-02T18:15:50.946Z,32.63
2023-02-02T18:19:12.134Z,29.52
2023-02-02T18:22:02.204Z,29.48
2023-02-02T18:24:36.613Z,33.70
2023-02-02T18:27:12.038Z,32.45
2023-02-02T18:29:53.963Z,31.73
2023-02-02T18:32:32.301Z,28.95
2023-02-02T18:35:03.118Z,32.88
2023-02-02T18:37:59.786Z,35.05
2023-02-02T18:40:29.563Z,33.58
2023-02-02T18:43:04.424Z,38.60
2023-02-02T18:46:23.560Z,35.15
2023-02-02T18:48:56.690Z,30.52
2023-02-02T18:51:25.473Z,33.42
2023-02-02T18:56:32.526Z,30.03
2023-02-02T18:59:12.082Z,35.50
2023-02-02T19:01:46.093Z,35.97
2023-02-02T19:04:32.662Z,31.73
2023-02-02T19:07:27.456Z,36.83
2023-02-02T19:09:58.186Z,35.35
2023-02-02T19:12:29.641Z,37.50
2023-02-02T19:15:00.830Z,33.17
2023-02-02T19:17:36.826Z,36.13
2023-02-02T19:20:26.247Z,37.03
2023-02-02T19:23:03.974Z,31.58
2023-02-02T19:25:37.566Z,36.10
2023-02-02T19:28:14.546Z,32.83
2023-02-02T19:30:51.793Z,33.50
2023-02-02T19:33:23.464Z,32.92
2023-02-02T19:35:55.517Z,32.70
2023-02-02T19:38:33.022Z,34.05
2023-02-02T19:41:16.819Z,41.72
2023-02-02T19:43:47.956Z,37.95
2023-02-02T19:46:24.706Z,40.28
2023-02-02T19:48:58.071Z,39.85
2023-02-02T19:51:36.145Z,39.65
2023-02-02T19:54:08.713Z,39.17
2023-02-02T19:56:43.733Z,32.78
2023-02-02T19:59:17.758Z,40.83
2023-02-02T20:01:53.042Z,39.13
2023-02-02T20:04:24.835Z,34.60
2023-02-02T20:07:04.059Z,38.75
2023-02-02T20:10:56.615Z,40.53
2023-02-02T20:13:57.644Z,37.35
2023-02-02T20:16:39.654Z,43.83
2023-02-02T20:19:37.359Z,41.85
2023-02-02T20:22:23.629Z,35.17
2023-02-02T20:25:21.178Z,43.95
2023-02-02T20:27:50.163Z,37.88
2023-02-02T20:30:28.544Z,40.50
2023-02-02T20:35:40.935Z,38.65
2023-02-02T20:38:23.990Z,35.08
2023-02-02T20:40:53.516Z,38.58
2023-02-02T20:43:22.511Z,39.08
2023-02-02T20:45:53.758Z,44.92
2023-02-02T20:48:25.814Z,42.38
2023-02-02T20:50:54.731Z,39.60
2023-02-02T20:53:23.484Z,40.20
2023-02-02T20:55:58.345Z,38.58
2023-02-02T20:58:27.036Z,42.13
2023-02-02T21:03:41.303Z,36.45
2023-02-02T21:06:11.881Z,40.30
2023-02-02T21:08:40.497Z,35.03
2023-02-02T21:11:09.209Z,37.80
2023-02-02T21:13:40.382Z,43.28
2023-02-02T21:16:09.706Z,38.30
2023-02-02T21:18:38.228Z,37.92
2023-02-02T21:21:08.219Z,35.13
2023-02-02T21:23:36.848Z,33.75
2023-02-02T21:28:33.731Z,39.40
2023-02-02T21:31:02.706Z,41.63
2023-02-02T21:33:31.497Z,39.88
2023-02-02T21:36:01.176Z,36.55
2023-02-02T21:38:32.122Z,38.92
2023-02-02T21:41:00.721Z,40.08
2023-02-02T21:43:29.260Z,36.40
2023-02-02T21:45:57.802Z,39.58
2023-02-02T21:50:58.710Z,37.47
2023-02-02T21:53:28.768Z,42.25
2023-02-02T21:56:00.455Z,46.38
2023-02-02T21:58:37.516Z,34.58
2023-02-02T22:01:19.269Z,45.10
2023-02-02T22:03:49.980Z,36.63
2023-02-02T22:06:27.191Z,38.30
2023-02-02T22:09:02.399Z,37.45
2023-02-02T22:11:41.589Z,39.88
2023-02-02T22:14:18.790Z,38.58
2023-02-02T22:16:50.341Z,40.35
2023-02-02T22:19:28.116Z,44.35
2023-02-02T22:22:15.469Z,43.42
2023-02-02T22:24:46.073Z,45.72
2023-02-02T22:27:24.408Z,41.90
2023-02-02T22:29:59.542Z,43.67
2023-02-02T22:32:31.119Z,40.25
2023-02-02T22:34:59.860Z,40.80
2023-02-02T22:39:56.519Z,41.95
2023-02-02T22:42:26.420Z,40.30
2023-02-02T22:44:54.916Z,41.42
2023-02-02T22:47:23.431Z,37.67
2023-02-02T22:49:51.898Z,35.42
2023-02-02T22:52:20.606Z,41.90
2023-02-02T22:54:48.983Z,44.80
2023-02-02T22:57:17.451Z,41.17
2023-02-02T22:59:47.303Z,37.10
2023-02-02T23:02:15.762Z,44.30
2023-02-02T23:04:44.211Z,43.75
2023-02-02T23:07:12.696Z,43.65
2023-02-02T23:09:41.217Z,40.30
2023-02-02T23:12:09.959Z,47.63
2023-02-02T23:14:38.405Z,37.58
2023-02-02T23:17:08.882Z,41.50
2023-02-02T23:19:37.456Z,41.15
2023-02-02T23:22:05.833Z,42.20
2023-02-02T23:24:34.364Z,44.33
2023-02-02T23:27:02.871Z,47.20
2023-02-02T23:29:31.430Z,40.92
2023-02-02T23:31:59.854Z,41.08
2023-02-02T23:34:29.757Z,50.45
2023-02-02T23:36:58.250Z,45.67
2023-02-02T23:39:26.720Z,42.53
2023-02-02T23:41:55.248Z,40.67
2023-02-02T23:44:23.762Z,43.03
2023-02-02T23:46:53.545Z,46.13
2023-02-02T23:49:22.670Z,43.70
2023-02-02T23:51:53.143Z,39.97
2023-02-02T23:54:21.743Z,45.38
2023-02-02T23:56:51.591Z,39.85
2023-02-02T23:59:20.106Z,39.63
